Skip Navigation Links
NOAA logo - Click to go to the NOAA homepage
NOAA's National Weather Service
Alaska Aviation Weather Unit
  NWS logo - Click to go to the NWS homepage
Left Navbar Graphic     00 AKDT = 08 GMT

   
NOAA is celebrating 200 years of science, service, and stewardship. Visit the NOAA 200th celebration Web site to learn more.
USA.gov is the U.S. Government's official Web portal to all Federal, state and local government Web resources and services.
Facebook
NWS on Facebook

Important Change Regarding the AAWU Web Presence

 

Over the last several months, the AAWU has been working to navigate its webpages to a nationally supported server. Security, as well as other needs, have necessitated the change.  In the process, we have made an effort to enhance the functionality of our website, as well as some of our products. As of June 20, 2017, aawu.arh.noaa.gov will be discontinued. The new AAWU web address is weather.gov/aawu. It is now live and will run in-parallel with the old site until it is discontinued. Please send any feedback or questions regarding the new webpages to nws.ar.aawu.webauthors@noaa.gov.  Thank you for your patience during this time of transition.
AAWU Home :: Display TAF Add Bookmark
SPECI PAGM 240216Z AUTO 14015KT 6SM BR SCT009 BKN040 OVC060 03/01 A2967
     RMK AO2=

SPECI PAGM 240225Z AUTO 14015KT 5SM BR BKN009 BKN040 OVC060 03/01 A2967
     RMK AO2=

METAR PAGM 240256Z AUTO 14018KT 6SM BR OVC009 03/01 A2967 RMK AO2 SLP053
     T00280006 50001=

SPECI PAGM 240329Z AUTO 14016KT 6SM BR SCT007 BKN060 OVC100 02/01 A2967
     RMK AO2 FZRANO=

METAR PAGM 240356Z AUTO 14016KT 5SM BR BKN007 OVC060 02/01 A2966 RMK AO2
     SLP051 T00220006 FZRANO=

METAR PAGM 240556Z AUTO 13012KT 6SM BR OVC007 02/01 A2965 RMK AO2
 SLP046 T00220006 10039 20017 56006 FZRANO=

SPECI PAGM 240652Z AUTO 12014KT 9SM -RA SCT007 OVC038 02/00 A2965 RMK
     AO2 UPB07E36RAB36 P0000 FZRANO=

METAR PAGM 240656Z AUTO 13014KT 10SM -RA SCT007 BKN038 OVC049 02/00
     A2965 RMK AO2 UPB07E36RAB36 SLP047 P0000 T00170000 FZRANO=

PAGM 240741Z AUTO 10008KT 5SM UP BR BKN025 OVC043 01/00 A2964 RMK
     AO2 RAE41UPB41 P0002 FZRANO=

METAR PAGM 240756Z AUTO 09010KT 6SM -RA BR FEW018 BKN024 OVC030 02/01
     A2964 RMK AO2 UPB41E43 SLP044 P0002 T00170006 FZRANO=


NOAA's National Weather Service
Alaska Aviation Weather Unit
6930 Sand Lake Road
Anchorage, AK 99502-1845
Disclaimer
Credits
Glossary
Privacy Policy
About Us
Career Opportunities
Contact AAWU Internet Services Site last modified: April, 17th 2012